createdAt,value
2017-12-11T00:00:16.813Z,973.86
2017-12-11T00:00:42.931Z,973.88
2017-12-11T00:01:09.079Z,973.9
2017-12-11T00:01:35.227Z,973.95
2017-12-11T00:02:01.343Z,973.82
2017-12-11T00:02:27.494Z,974
2017-12-11T00:02:53.629Z,974.01
2017-12-11T00:03:19.746Z,973.69
2017-12-11T00:03:45.864Z,973.57
2017-12-11T00:04:11.972Z,974.05
2017-12-11T00:04:38.084Z,974.05
2017-12-11T00:05:04.202Z,974.11
2017-12-11T00:05:30.323Z,974.17
2017-12-11T00:05:56.431Z,974.16
2017-12-11T00:06:22.542Z,974.19
2017-12-11T00:06:48.662Z,974.25
2017-12-11T00:07:14.772Z,974.28
2017-12-11T00:07:40.886Z,974.26
2017-12-11T00:08:06.999Z,974.37
2017-12-11T00:08:33.119Z,974.26
2017-12-11T00:08:59.244Z,974.22
2017-12-11T00:09:25.364Z,974.35
2017-12-11T00:09:51.481Z,974.43
2017-12-11T00:10:17.611Z,974.39
2017-12-11T00:10:43.731Z,974.41
2017-12-11T00:11:09.848Z,974.41
2017-12-11T00:11:35.956Z,974.51
2017-12-11T00:12:02.074Z,974.47
2017-12-11T00:12:28.190Z,974.3
2017-12-11T00:12:54.317Z,974.46
2017-12-11T00:13:20.431Z,974.5
2017-12-11T00:13:46.548Z,974.55
2017-12-11T00:14:12.672Z,974.55
2017-12-11T00:14:38.776Z,974.58
2017-12-11T00:15:04.894Z,974.71
2017-12-11T00:15:31.025Z,974.7
2017-12-11T00:15:57.138Z,974.72
2017-12-11T00:16:23.253Z,974.72
2017-12-11T00:16:49.362Z,974.6
2017-12-11T00:17:15.483Z,974.71
2017-12-11T00:17:41.618Z,974.71
2017-12-11T00:18:07.730Z,974.76
2017-12-11T00:18:33.847Z,974.58
2017-12-11T00:18:59.975Z,974.77
2017-12-11T00:19:26.088Z,974.72
2017-12-11T00:19:52.230Z,974.77
2017-12-11T00:20:18.346Z,974.84
2017-12-11T00:20:44.457Z,974.89
2017-12-11T00:21:10.566Z,974.93
2017-12-11T00:21:36.683Z,974.86
2017-12-11T00:22:02.798Z,974.97
2017-12-11T00:22:28.912Z,974.96
2017-12-11T00:22:55.043Z,974.96
2017-12-11T00:23:21.160Z,974.95
2017-12-11T00:23:47.277Z,974.94
2017-12-11T00:24:13.408Z,974.96
2017-12-11T00:24:39.524Z,975.03
2017-12-11T00:25:05.635Z,975.06
2017-12-11T00:25:31.746Z,974.83
2017-12-11T00:25:57.863Z,975.03
2017-12-11T00:26:23.981Z,975.07
2017-12-11T00:26:50.092Z,974.91
2017-12-11T00:27:16.199Z,975.06
2017-12-11T00:27:42.313Z,975.16
2017-12-11T00:28:08.425Z,975.11
2017-12-11T00:28:34.543Z,975.13
2017-12-11T00:29:00.676Z,975.24
2017-12-11T00:29:26.788Z,975.25
2017-12-11T00:29:52.915Z,975.21
2017-12-11T00:30:19.018Z,975.24
2017-12-11T00:30:45.130Z,975.39
2017-12-11T00:31:11.248Z,975.33
2017-12-11T00:31:37.373Z,975.33
2017-12-11T00:32:03.495Z,975.37
2017-12-11T00:32:29.608Z,975.47
2017-12-11T00:32:55.722Z,975.43
2017-12-11T00:33:21.836Z,975.45
2017-12-11T00:33:47.949Z,975.52
2017-12-11T00:34:14.074Z,975.54
2017-12-11T00:34:40.186Z,975.58
2017-12-11T00:35:06.304Z,975.58
2017-12-11T00:35:32.440Z,975.6
2017-12-11T00:35:58.552Z,975.6
2017-12-11T00:36:24.673Z,975.61
2017-12-11T00:36:50.783Z,975.7
2017-12-11T00:37:16.900Z,975.6
2017-12-11T00:37:43.015Z,975.61
2017-12-11T00:38:09.131Z,975.63
2017-12-11T00:38:35.245Z,975.69
2017-12-11T00:39:01.353Z,975.67
2017-12-11T00:39:27.470Z,975.65
2017-12-11T00:39:53.583Z,975.62
2017-12-11T00:40:19.720Z,975.59
2017-12-11T00:40:45.834Z,975.65
2017-12-11T00:41:11.969Z,975.58
2017-12-11T00:41:38.078Z,975.64
2017-12-11T00:42:04.191Z,975.66
2017-12-11T00:42:30.310Z,975.65
2017-12-11T00:42:56.418Z,975.68
2017-12-11T00:43:22.539Z,975.71
2017-12-11T00:43:48.651Z,975.77
2017-12-11T00:44:14.768Z,975.67
2017-12-11T00:44:40.904Z,975.72
2017-12-11T00:45:07.015Z,975.7
2017-12-11T00:45:33.135Z,975.7
2017-12-11T00:45:59.247Z,975.81
2017-12-11T00:46:25.365Z,975.74
2017-12-11T00:46:51.533Z,975.61
2017-12-11T00:47:17.606Z,975.71
2017-12-11T00:47:43.725Z,975.78
2017-12-11T00:48:09.840Z,975.76
2017-12-11T00:48:35.951Z,975.79
2017-12-11T00:49:02.073Z,975.92
2017-12-11T00:49:28.189Z,975.75
2017-12-11T00:49:54.307Z,975.78
2017-12-11T00:50:20.425Z,975.77
2017-12-11T00:50:46.539Z,975.77
2017-12-11T00:51:12.652Z,975.82
2017-12-11T00:51:38.764Z,975.78
2017-12-11T00:52:04.881Z,975.8
2017-12-11T00:52:30.996Z,975.85
2017-12-11T00:52:57.109Z,975.8
2017-12-11T00:53:23.229Z,975.89
2017-12-11T00:53:49.335Z,975.76
2017-12-11T00:54:15.450Z,975.89
2017-12-11T00:54:41.561Z,975.82
2017-12-11T00:55:07.676Z,975.86
2017-12-11T00:55:33.786Z,975.92
2017-12-11T00:55:59.906Z,975.88
2017-12-11T00:56:26.014Z,975.94
2017-12-11T00:56:52.130Z,975.94
2017-12-11T00:57:18.246Z,975.97
2017-12-11T00:57:44.354Z,976.01
2017-12-11T00:58:10.484Z,976.01
2017-12-11T00:58:36.594Z,976.08
2017-12-11T00:59:02.713Z,976.11
2017-12-11T00:59:28.834Z,976.04
2017-12-11T00:59:54.949Z,976.16
2017-12-11T01:00:21.058Z,976.07
2017-12-11T01:00:47.173Z,976.13
2017-12-11T01:01:13.312Z,976.22
2017-12-11T01:01:39.422Z,976.14
2017-12-11T01:02:05.538Z,976.22
2017-12-11T01:02:31.656Z,976.14
2017-12-11T01:02:57.765Z,976.2
2017-12-11T01:03:23.881Z,976.21
2017-12-11T01:03:50.003Z,976.25
2017-12-11T01:04:16.112Z,976.34
2017-12-11T01:04:42.243Z,976.29
2017-12-11T01:05:08.360Z,976.33
2017-12-11T01:05:34.476Z,976.32
2017-12-11T01:06:00.592Z,976.31
2017-12-11T01:06:26.700Z,976.39
2017-12-11T01:06:52.816Z,976.43
2017-12-11T01:07:18.933Z,976.39
2017-12-11T01:07:45.064Z,976.42
2017-12-11T01:08:11.176Z,976.38
2017-12-11T01:08:37.290Z,976.41
2017-12-11T01:09:03.416Z,976.38
2017-12-11T01:09:29.540Z,976.45
2017-12-11T01:09:55.655Z,976.47
2017-12-11T01:10:21.775Z,976.43
2017-12-11T01:10:47.890Z,976.48
2017-12-11T01:11:14.003Z,976.47
2017-12-11T01:11:40.115Z,976.48
2017-12-11T01:12:06.224Z,976.5
2017-12-11T01:12:32.342Z,976.49
2017-12-11T01:12:58.460Z,976.53
2017-12-11T01:13:24.570Z,976.65
2017-12-11T01:13:50.688Z,976.54
2017-12-11T01:14:16.802Z,976.65
2017-12-11T01:14:42.914Z,976.58
2017-12-11T01:15:09.031Z,976.66
2017-12-11T01:15:35.141Z,976.66
2017-12-11T01:16:01.256Z,976.64
2017-12-11T01:16:27.376Z,976.72
2017-12-11T01:16:53.493Z,976.72
2017-12-11T01:17:19.603Z,976.73
2017-12-11T01:17:45.714Z,976.85
2017-12-11T01:18:11.827Z,976.77
2017-12-11T01:18:37.937Z,976.78
2017-12-11T01:19:04.060Z,976.81
2017-12-11T01:19:30.171Z,976.84
2017-12-11T01:19:56.285Z,976.87
2017-12-11T01:20:22.404Z,976.89
2017-12-11T01:20:48.515Z,976.9
2017-12-11T01:21:14.626Z,976.95
2017-12-11T01:21:40.743Z,976.91
2017-12-11T01:22:06.853Z,976.98
2017-12-11T01:22:32.967Z,976.94
2017-12-11T01:22:59.087Z,976.95
2017-12-11T01:23:25.196Z,976.98
2017-12-11T01:23:51.311Z,977.11
2017-12-11T01:24:17.429Z,977.15
2017-12-11T01:24:43.563Z,977.11
2017-12-11T01:25:09.671Z,977.17
2017-12-11T01:25:35.784Z,977.15
2017-12-11T01:26:01.902Z,977.15
2017-12-11T01:26:28.033Z,977.16
2017-12-11T01:26:54.147Z,977.13
2017-12-11T01:27:20.260Z,977.2
2017-12-11T01:27:46.378Z,977.23
2017-12-11T01:28:12.515Z,977.26
2017-12-11T01:28:38.625Z,977.27
2017-12-11T01:29:04.740Z,977.3
2017-12-11T01:29:30.852Z,977.36
2017-12-11T01:29:56.974Z,977.3
2017-12-11T01:30:23.081Z,977.38
2017-12-11T01:30:49.191Z,977.37
2017-12-11T01:31:15.308Z,977.41
2017-12-11T01:31:41.426Z,977.36
2017-12-11T01:32:07.536Z,977.42
2017-12-11T01:32:33.654Z,977.46
2017-12-11T01:32:59.768Z,977.5
2017-12-11T01:33:25.883Z,977.48
2017-12-11T01:33:52.018Z,977.46
2017-12-11T01:34:18.137Z,977.48
2017-12-11T01:34:44.244Z,977.49
2017-12-11T01:35:10.358Z,977.47
2017-12-11T01:35:36.478Z,977.5
2017-12-11T01:36:02.593Z,977.48
2017-12-11T01:36:28.706Z,977.47
2017-12-11T01:36:54.817Z,977.55
2017-12-11T01:37:20.934Z,977.52
2017-12-11T01:37:47.042Z,977.48
2017-12-11T01:38:13.163Z,977.42
2017-12-11T01:38:39.267Z,977.41
2017-12-11T01:39:05.387Z,977.53
2017-12-11T01:39:31.521Z,977.56
2017-12-11T01:39:57.632Z,977.55
2017-12-11T01:40:23.751Z,977.58
2017-12-11T01:40:49.863Z,977.56
2017-12-11T01:41:15.976Z,977.53
2017-12-11T01:41:42.087Z,977.56
2017-12-11T01:42:08.199Z,977.55
2017-12-11T01:42:34.311Z,977.56
2017-12-11T01:43:00.442Z,977.59
2017-12-11T01:43:26.571Z,977.57
2017-12-11T01:43:52.677Z,977.59
2017-12-11T01:44:18.816Z,977.56
2017-12-11T01:44:44.926Z,977.62
2017-12-11T01:45:11.041Z,977.61
2017-12-11T01:45:37.157Z,977.64
2017-12-11T01:46:03.275Z,977.66
2017-12-11T01:46:29.381Z,977.69
2017-12-11T01:46:55.499Z,977.71
2017-12-11T01:47:21.616Z,977.65
2017-12-11T01:47:47.729Z,977.67
2017-12-11T01:48:13.847Z,977.68
2017-12-11T01:48:39.958Z,977.67
2017-12-11T01:49:06.076Z,977.68
2017-12-11T01:49:32.189Z,977.71
2017-12-11T01:49:58.315Z,977.64
2017-12-11T01:50:24.420Z,977.71
2017-12-11T01:50:50.530Z,977.71
2017-12-11T01:51:16.647Z,977.72
2017-12-11T01:51:42.779Z,977.74
2017-12-11T01:52:08.896Z,977.73
2017-12-11T01:52:35.010Z,977.75
2017-12-11T01:53:01.121Z,977.74
2017-12-11T01:53:27.233Z,977.72
2017-12-11T01:53:53.350Z,977.73
2017-12-11T01:54:19.465Z,977.77
2017-12-11T01:54:45.574Z,977.78
2017-12-11T01:55:11.692Z,977.76
2017-12-11T01:55:37.800Z,977.76
2017-12-11T01:56:03.910Z,977.75
2017-12-11T01:56:30.030Z,977.73
2017-12-11T01:56:56.135Z,977.74
2017-12-11T01:57:22.258Z,977.77
2017-12-11T01:57:48.370Z,977.81
2017-12-11T01:58:14.499Z,977.83
2017-12-11T01:58:40.612Z,977.84
2017-12-11T01:59:06.726Z,977.79
2017-12-11T01:59:32.840Z,977.82
2017-12-11T01:59:58.958Z,977.83
2017-12-11T02:00:25.071Z,977.83
2017-12-11T02:00:51.214Z,977.85
2017-12-11T02:01:17.325Z,977.82
2017-12-11T02:01:43.437Z,977.83
2017-12-11T02:02:09.573Z,977.85
2017-12-11T02:02:35.688Z,977.81
2017-12-11T02:03:01.802Z,977.81
2017-12-11T02:03:27.911Z,977.72
2017-12-11T02:03:54.025Z,977.75
2017-12-11T02:04:20.144Z,977.77
2017-12-11T02:04:46.260Z,977.73
2017-12-11T02:05:12.370Z,977.73
2017-12-11T02:05:38.496Z,977.76
2017-12-11T02:06:04.631Z,977.74
2017-12-11T02:06:30.744Z,977.73
2017-12-11T02:06:56.858Z,977.69
2017-12-11T02:07:22.971Z,977.7
2017-12-11T02:07:49.089Z,977.62
2017-12-11T02:08:15.205Z,977.62
2017-12-11T02:08:41.313Z,977.63
2017-12-11T02:09:07.433Z,977.59
2017-12-11T02:09:33.544Z,977.59
2017-12-11T02:09:59.656Z,977.54
2017-12-11T02:10:25.772Z,977.52
2017-12-11T02:10:51.888Z,977.55
2017-12-11T02:11:18.000Z,977.53
2017-12-11T02:11:44.117Z,977.52
2017-12-11T02:12:10.227Z,977.52
2017-12-11T02:12:36.339Z,977.56
2017-12-11T02:13:02.457Z,977.53
2017-12-11T02:13:28.569Z,977.55
2017-12-11T02:13:54.685Z,977.51
2017-12-11T02:14:20.797Z,977.55
2017-12-11T02:14:46.915Z,977.49
2017-12-11T02:15:13.026Z,977.53
2017-12-11T02:15:39.145Z,977.56
2017-12-11T02:16:05.260Z,977.57
2017-12-11T02:16:31.373Z,977.56
2017-12-11T02:16:57.505Z,977.58
2017-12-11T02:17:23.618Z,977.6
2017-12-11T02:17:49.729Z,977.59
2017-12-11T02:18:15.858Z,977.58
2017-12-11T02:18:41.963Z,977.64
2017-12-11T02:19:08.072Z,977.63
2017-12-11T02:19:34.192Z,977.67
2017-12-11T02:20:00.308Z,977.67
2017-12-11T02:20:26.420Z,977.69
2017-12-11T02:20:52.555Z,977.64
2017-12-11T02:21:18.672Z,977.66
2017-12-11T02:21:44.781Z,977.66
2017-12-11T02:22:10.895Z,977.65
2017-12-11T02:22:37.012Z,977.63
2017-12-11T02:23:03.123Z,977.64
2017-12-11T02:23:29.239Z,977.65
2017-12-11T02:23:55.354Z,977.66
2017-12-11T02:24:21.470Z,977.68
2017-12-11T02:24:47.579Z,977.64
2017-12-11T02:25:13.698Z,977.62
2017-12-11T02:25:39.815Z,977.58
2017-12-11T02:26:05.997Z,977.57
2017-12-11T02:26:32.107Z,977.53
2017-12-11T02:26:58.225Z,977.55
2017-12-11T02:27:24.330Z,977.58
2017-12-11T02:27:50.445Z,977.59
2017-12-11T02:28:16.568Z,977.59
2017-12-11T02:28:42.678Z,977.53
2017-12-11T02:29:08.796Z,977.56
2017-12-11T02:29:34.907Z,977.55
2017-12-11T02:30:01.021Z,977.55
2017-12-11T02:30:27.178Z,977.54
2017-12-11T02:30:53.308Z,977.53
2017-12-11T02:31:19.422Z,977.46
2017-12-11T02:31:45.542Z,977.44
2017-12-11T02:32:11.656Z,977.51
2017-12-11T02:32:37.767Z,977.49
2017-12-11T02:33:03.879Z,977.46
2017-12-11T02:33:29.990Z,977.52
2017-12-11T02:33:56.126Z,977.51
2017-12-11T02:34:22.244Z,977.55
2017-12-11T02:34:48.356Z,977.54
2017-12-11T02:35:14.466Z,977.55
2017-12-11T02:35:40.583Z,977.59
2017-12-11T02:36:06.699Z,977.62
2017-12-11T02:36:32.828Z,977.64
2017-12-11T02:36:58.943Z,977.63
2017-12-11T02:37:25.061Z,977.6
2017-12-11T02:37:51.178Z,977.68
2017-12-11T02:38:17.288Z,977.69
2017-12-11T02:38:43.418Z,977.71
2017-12-11T02:39:09.533Z,977.76
2017-12-11T02:39:35.650Z,977.76
2017-12-11T02:40:01.760Z,977.79
2017-12-11T02:40:27.874Z,977.77
2017-12-11T02:40:53.986Z,977.82
2017-12-11T02:41:20.121Z,977.85
2017-12-11T02:41:46.235Z,977.85
2017-12-11T02:42:12.352Z,977.84
2017-12-11T02:42:38.464Z,977.89
2017-12-11T02:43:04.576Z,977.89
2017-12-11T02:43:30.694Z,977.96
2017-12-11T02:43:56.812Z,977.97
2017-12-11T02:44:22.922Z,978.01
2017-12-11T02:44:49.038Z,978.02
2017-12-11T02:45:15.157Z,978.07
2017-12-11T02:45:41.271Z,978.09
2017-12-11T02:46:07.381Z,978.03
2017-12-11T02:46:33.494Z,978.07
2017-12-11T02:46:59.605Z,978.09
2017-12-11T02:47:25.754Z,978.04
2017-12-11T02:47:51.874Z,978.04
2017-12-11T02:48:18.002Z,978.04
2017-12-11T02:48:44.113Z,978.07
2017-12-11T02:49:10.225Z,978.01
2017-12-11T02:49:36.345Z,978.02
2017-12-11T02:50:02.454Z,978.05
2017-12-11T02:50:28.591Z,978.04
2017-12-11T02:50:54.711Z,978.1
2017-12-11T02:51:20.822Z,978.07
2017-12-11T02:51:46.936Z,978.08
2017-12-11T02:52:13.046Z,978.11
2017-12-11T02:52:39.158Z,978.06
2017-12-11T02:53:05.274Z,978.11
2017-12-11T02:53:31.392Z,978.14
2017-12-11T02:53:57.544Z,978.24
2017-12-11T02:54:23.648Z,978.23
2017-12-11T02:54:49.766Z,978.29
2017-12-11T02:55:15.896Z,978.31
2017-12-11T02:55:42.010Z,978.36
2017-12-11T02:56:08.124Z,978.33
2017-12-11T02:56:34.244Z,978.34
2017-12-11T02:57:00.354Z,978.36
2017-12-11T02:57:26.494Z,978.39
2017-12-11T02:57:52.602Z,978.38
2017-12-11T02:58:18.722Z,978.42
2017-12-11T02:58:44.841Z,978.46
2017-12-11T02:59:10.951Z,978.48
2017-12-11T02:59:37.065Z,978.53
2017-12-11T03:00:03.198Z,978.54
2017-12-11T03:00:29.310Z,978.51
2017-12-11T03:00:55.430Z,978.59
2017-12-11T03:01:21.537Z,978.54
2017-12-11T03:01:47.656Z,978.54
2017-12-11T03:02:13.772Z,978.61
2017-12-11T03:02:39.882Z,978.63
2017-12-11T03:03:05.999Z,978.57
2017-12-11T03:03:32.110Z,978.67
2017-12-11T03:03:58.222Z,978.71
2017-12-11T03:04:24.339Z,978.73
2017-12-11T03:04:50.456Z,978.7
2017-12-11T03:05:16.568Z,978.72
2017-12-11T03:05:42.687Z,978.69
2017-12-11T03:06:08.794Z,978.74
2017-12-11T03:06:34.906Z,978.79
2017-12-11T03:07:01.026Z,978.81
2017-12-11T03:07:27.133Z,978.88
2017-12-11T03:07:53.249Z,978.88
2017-12-11T03:08:19.369Z,978.9
2017-12-11T03:08:45.486Z,978.99
2017-12-11T03:09:11.594Z,978.99
2017-12-11T03:09:37.707Z,978.96
2017-12-11T03:10:03.828Z,979.03
2017-12-11T03:10:29.939Z,979.08
2017-12-11T03:10:56.054Z,979.06
2017-12-11T03:11:22.174Z,979.08
2017-12-11T03:11:48.289Z,979.08
2017-12-11T03:12:14.391Z,979.11
2017-12-11T03:12:40.533Z,979.15
2017-12-11T03:13:06.677Z,979.15
2017-12-11T03:13:32.778Z,979.12
2017-12-11T03:13:58.891Z,979.1
2017-12-11T03:14:25.002Z,979.12
2017-12-11T03:14:51.119Z,979.13
2017-12-11T03:15:17.229Z,979.14
2017-12-11T03:15:43.347Z,979.14
2017-12-11T03:16:09.464Z,979.16
2017-12-11T03:16:35.569Z,979.18
2017-12-11T03:17:01.681Z,979.21
2017-12-11T03:17:27.797Z,979.22
2017-12-11T03:17:53.915Z,979.24
2017-12-11T03:18:20.033Z,979.24
2017-12-11T03:18:46.149Z,979.24
2017-12-11T03:19:12.258Z,979.24
2017-12-11T03:19:38.376Z,979.27
2017-12-11T03:20:04.488Z,979.28
2017-12-11T03:20:30.604Z,979.3
2017-12-11T03:20:56.735Z,979.36
2017-12-11T03:21:22.847Z,979.35
2017-12-11T03:21:48.966Z,979.39
2017-12-11T03:22:15.073Z,979.37
2017-12-11T03:22:41.185Z,979.4
2017-12-11T03:23:07.328Z,979.34
2017-12-11T03:23:33.446Z,979.45
2017-12-11T03:23:59.554Z,979.41
2017-12-11T03:24:25.672Z,979.46
2017-12-11T03:24:51.782Z,979.43
2017-12-11T03:25:17.900Z,979.49
2017-12-11T03:25:44.029Z,979.51
2017-12-11T03:26:10.130Z,979.57
2017-12-11T03:26:36.249Z,979.53
2017-12-11T03:27:02.355Z,979.56
2017-12-11T03:27:28.474Z,979.56
2017-12-11T03:27:54.583Z,979.65
2017-12-11T03:28:20.692Z,979.58
2017-12-11T03:28:46.811Z,979.58
2017-12-11T03:29:12.937Z,979.61
2017-12-11T03:29:39.058Z,979.66
2017-12-11T03:30:05.174Z,979.68
2017-12-11T03:30:31.286Z,979.65
2017-12-11T03:30:57.442Z,979.72
2017-12-11T03:31:23.552Z,979.75
2017-12-11T03:31:49.667Z,979.79
2017-12-11T03:32:15.779Z,979.8
2017-12-11T03:32:41.912Z,979.81
2017-12-11T03:33:08.028Z,979.79
2017-12-11T03:33:34.167Z,979.78
2017-12-11T03:34:00.279Z,979.79
2017-12-11T03:34:26.392Z,979.83
2017-12-11T03:34:52.527Z,979.83
2017-12-11T03:35:18.637Z,979.84
2017-12-11T03:35:44.755Z,979.91
2017-12-11T03:36:10.864Z,979.91
2017-12-11T03:36:36.976Z,979.92
2017-12-11T03:37:03.094Z,979.94
2017-12-11T03:37:29.209Z,980
2017-12-11T03:37:55.364Z,979.97
2017-12-11T03:38:21.499Z,980.03
2017-12-11T03:38:47.606Z,980.04
2017-12-11T03:39:13.723Z,980.02
2017-12-11T03:39:39.837Z,980.06
2017-12-11T03:40:06.001Z,980.09
2017-12-11T03:40:32.063Z,980.07
2017-12-11T03:40:58.181Z,980.06
2017-12-11T03:41:24.293Z,980.04
2017-12-11T03:41:50.407Z,980.03
2017-12-11T03:42:16.515Z,980.02
2017-12-11T03:42:42.657Z,980.07
2017-12-11T03:43:08.795Z,980.06
2017-12-11T03:43:34.911Z,980.04
2017-12-11T03:44:01.024Z,980.05
2017-12-11T03:44:27.141Z,980.02
2017-12-11T03:44:53.262Z,980.04
2017-12-11T03:45:19.370Z,980.02
2017-12-11T03:45:45.488Z,979.99
2017-12-11T03:46:11.599Z,979.96
2017-12-11T03:46:37.733Z,979.95
2017-12-11T03:47:03.840Z,979.88
2017-12-11T03:47:29.958Z,979.89
2017-12-11T03:47:56.071Z,979.85
2017-12-11T03:48:22.182Z,979.84
2017-12-11T03:48:48.302Z,979.85
2017-12-11T03:49:14.412Z,979.83
2017-12-11T03:49:40.533Z,979.82
2017-12-11T03:50:06.649Z,979.84
2017-12-11T03:50:32.760Z,979.81
2017-12-11T03:50:58.873Z,979.81
2017-12-11T03:51:24.992Z,979.81
2017-12-11T03:51:51.098Z,979.79
2017-12-11T03:52:17.217Z,979.77
2017-12-11T03:52:43.355Z,979.79
2017-12-11T03:53:09.483Z,979.85
2017-12-11T03:53:35.598Z,979.75
2017-12-11T03:54:01.717Z,979.8
2017-12-11T03:54:27.827Z,979.73
2017-12-11T03:54:53.972Z,979.73
2017-12-11T03:55:20.080Z,979.73
2017-12-11T03:55:46.190Z,979.69
2017-12-11T03:56:12.310Z,979.7
2017-12-11T03:56:38.419Z,979.73
2017-12-11T03:57:04.532Z,979.7
2017-12-11T03:57:30.649Z,979.68
2017-12-11T03:57:56.771Z,979.67
2017-12-11T03:58:22.882Z,979.61
2017-12-11T03:58:48.996Z,979.63
2017-12-11T03:59:15.110Z,979.57
2017-12-11T03:59:41.225Z,979.58
2017-12-11T04:00:07.339Z,979.57
2017-12-11T04:00:33.461Z,979.52
2017-12-11T04:00:59.582Z,979.56
2017-12-11T04:01:25.692Z,979.48
2017-12-11T04:01:51.821Z,979.48
2017-12-11T04:02:17.957Z,979.49
2017-12-11T04:02:44.083Z,979.47
2017-12-11T04:03:10.206Z,979.43
2017-12-11T04:03:36.319Z,979.4
2017-12-11T04:04:02.429Z,979.39
2017-12-11T04:04:28.552Z,979.36
2017-12-11T04:04:54.666Z,979.36
2017-12-11T04:05:20.779Z,979.32
2017-12-11T04:05:46.892Z,979.28
2017-12-11T04:06:13.003Z,979.26
2017-12-11T04:06:39.123Z,979.26
2017-12-11T04:07:05.233Z,979.24
2017-12-11T04:07:31.342Z,979.24
2017-12-11T04:07:57.457Z,979.25
2017-12-11T04:08:23.568Z,979.23
2017-12-11T04:08:49.688Z,979.22
2017-12-11T04:09:15.802Z,979.25
2017-12-11T04:09:41.919Z,979.27
2017-12-11T04:10:08.028Z,979.26
2017-12-11T04:10:34.146Z,979.26
2017-12-11T04:11:00.260Z,979.28
2017-12-11T04:11:26.373Z,979.23
2017-12-11T04:11:52.490Z,979.25
2017-12-11T04:12:18.605Z,979.25
2017-12-11T04:12:44.722Z,979.22
2017-12-11T04:13:10.852Z,979.21
2017-12-11T04:13:36.968Z,979.21
2017-12-11T04:14:03.080Z,979.21
2017-12-11T04:14:29.192Z,979.15
2017-12-11T04:14:55.306Z,979.13
2017-12-11T04:15:21.420Z,979.13
2017-12-11T04:15:47.538Z,979.1
2017-12-11T04:16:13.647Z,979.11
2017-12-11T04:16:39.784Z,979.1
2017-12-11T04:17:05.900Z,979.13
2017-12-11T04:17:32.009Z,979.12
2017-12-11T04:17:58.130Z,979.14
2017-12-11T04:18:24.239Z,979.17
2017-12-11T04:18:50.356Z,979.17
2017-12-11T04:19:16.469Z,979.18
2017-12-11T04:19:42.579Z,979.21
2017-12-11T04:20:08.695Z,979.2
2017-12-11T04:20:34.812Z,979.18
2017-12-11T04:21:00.939Z,979.2
2017-12-11T04:21:27.052Z,979.2
2017-12-11T04:21:53.164Z,979.22
2017-12-11T04:22:19.278Z,979.16
2017-12-11T04:22:45.396Z,979.22
2017-12-11T04:23:11.539Z,979.23
2017-12-11T04:23:37.652Z,979.27
2017-12-11T04:24:03.767Z,979.31
2017-12-11T04:24:29.879Z,979.32
2017-12-11T04:24:56.048Z,979.32
2017-12-11T04:25:22.127Z,979.32
2017-12-11T04:25:48.240Z,979.33
2017-12-11T04:26:14.360Z,979.35
2017-12-11T04:26:40.471Z,979.34
2017-12-11T04:27:06.587Z,979.35
2017-12-11T04:27:32.699Z,979.37
2017-12-11T04:27:58.813Z,979.35
2017-12-11T04:28:24.931Z,979.4
2017-12-11T04:28:51.044Z,979.4
2017-12-11T04:29:17.158Z,979.41
2017-12-11T04:29:43.272Z,979.39
2017-12-11T04:30:09.390Z,979.4
2017-12-11T04:30:35.501Z,979.4
2017-12-11T04:31:01.615Z,979.4
2017-12-11T04:31:27.728Z,979.4
2017-12-11T04:31:53.846Z,979.4
2017-12-11T04:32:19.960Z,979.39
2017-12-11T04:32:46.076Z,979.42
2017-12-11T04:33:12.187Z,979.4
2017-12-11T04:33:38.320Z,979.37
2017-12-11T04:34:04.445Z,979.38
2017-12-11T04:34:30.550Z,979.31
2017-12-11T04:34:56.668Z,979.33
2017-12-11T04:35:22.786Z,979.38
2017-12-11T04:35:48.915Z,979.31
2017-12-11T04:36:15.031Z,979.32
2017-12-11T04:36:41.140Z,979.34
2017-12-11T04:37:07.249Z,979.31
2017-12-11T04:37:33.369Z,979.3
2017-12-11T04:37:59.485Z,979.29
2017-12-11T04:38:25.595Z,979.29
2017-12-11T04:38:51.707Z,979.3
2017-12-11T04:39:17.826Z,979.32
2017-12-11T04:39:43.939Z,979.31
2017-12-11T04:40:10.055Z,979.33
2017-12-11T04:40:36.191Z,979.38
2017-12-11T04:41:02.302Z,979.37
2017-12-11T04:41:28.439Z,979.3
2017-12-11T04:41:54.549Z,979.35
2017-12-11T04:42:20.663Z,979.38
2017-12-11T04:42:46.780Z,979.42
2017-12-11T04:43:12.894Z,979.44
2017-12-11T04:43:39.006Z,979.44
2017-12-11T04:44:05.118Z,979.44
2017-12-11T04:44:31.226Z,979.45
2017-12-11T04:44:57.343Z,979.44
2017-12-11T04:45:23.501Z,979.5
2017-12-11T04:45:49.635Z,979.5
2017-12-11T04:46:15.742Z,979.51
2017-12-11T04:46:41.858Z,979.58
2017-12-11T04:47:07.978Z,979.57
2017-12-11T04:47:34.092Z,979.6
2017-12-11T04:48:00.207Z,979.59
2017-12-11T04:48:26.326Z,979.62
2017-12-11T04:48:52.459Z,979.65
2017-12-11T04:49:18.568Z,979.63
2017-12-11T04:49:44.709Z,979.61
2017-12-11T04:50:10.826Z,979.61
2017-12-11T04:50:36.942Z,979.63
2017-12-11T04:51:03.069Z,979.59
2017-12-11T04:51:29.183Z,979.6
2017-12-11T04:51:55.299Z,979.56
2017-12-11T04:52:21.421Z,979.52
2017-12-11T04:52:47.530Z,979.54
2017-12-11T04:53:13.645Z,979.52
2017-12-11T04:53:39.759Z,979.45
2017-12-11T04:54:05.869Z,979.42
2017-12-11T04:54:31.983Z,979.39
2017-12-11T04:54:58.093Z,979.33
2017-12-11T04:55:24.207Z,979.33
2017-12-11T04:55:50.326Z,979.32
2017-12-11T04:56:16.436Z,979.32
2017-12-11T04:56:42.555Z,979.28
2017-12-11T04:57:08.666Z,979.32
2017-12-11T04:57:34.781Z,979.28
2017-12-11T04:58:00.899Z,979.34
2017-12-11T04:58:27.010Z,979.28
2017-12-11T04:58:53.130Z,979.29
2017-12-11T04:59:19.247Z,979.31
2017-12-11T04:59:45.350Z,979.27
2017-12-11T05:00:11.469Z,979.26
2017-12-11T05:00:37.586Z,979.27
2017-12-11T05:01:03.698Z,979.26
2017-12-11T05:01:29.815Z,979.3
2017-12-11T05:01:55.924Z,979.26
2017-12-11T05:02:22.038Z,979.27
2017-12-11T05:02:48.156Z,979.26
2017-12-11T05:03:14.266Z,979.25
2017-12-11T05:03:40.384Z,979.29
2017-12-11T05:04:06.501Z,979.3
2017-12-11T05:04:32.612Z,979.28
2017-12-11T05:04:58.724Z,979.3
2017-12-11T05:05:24.841Z,979.31
2017-12-11T05:05:50.961Z,979.32
2017-12-11T05:06:17.078Z,979.35
2017-12-11T05:06:43.187Z,979.34
2017-12-11T05:07:09.299Z,979.38
2017-12-11T05:07:35.414Z,979.32
2017-12-11T05:08:01.527Z,979.36
2017-12-11T05:08:27.644Z,979.33
2017-12-11T05:08:53.755Z,979.33
2017-12-11T05:09:19.868Z,979.37
2017-12-11T05:09:45.982Z,979.36
2017-12-11T05:10:12.100Z,979.35
2017-12-11T05:10:38.218Z,979.36
2017-12-11T05:11:04.332Z,979.34
2017-12-11T05:11:30.440Z,979.36
2017-12-11T05:11:56.555Z,979.35
2017-12-11T05:12:22.677Z,979.35
2017-12-11T05:12:48.815Z,979.36
2017-12-11T05:13:14.933Z,979.35
2017-12-11T05:13:41.061Z,979.32
2017-12-11T05:14:07.174Z,979.35
2017-12-11T05:14:33.291Z,979.33
2017-12-11T05:14:59.402Z,979.31
2017-12-11T05:15:25.515Z,979.29
2017-12-11T05:15:51.654Z,979.27
2017-12-11T05:16:17.761Z,979.3
2017-12-11T05:16:43.878Z,979.26
2017-12-11T05:17:09.990Z,979.31
2017-12-11T05:17:36.110Z,979.28
2017-12-11T05:18:02.247Z,979.3
2017-12-11T05:18:28.359Z,979.29
2017-12-11T05:18:54.476Z,979.26
2017-12-11T05:19:20.590Z,979.27
2017-12-11T05:19:46.707Z,979.31
2017-12-11T05:20:12.818Z,979.26
2017-12-11T05:20:38.937Z,979.3
2017-12-11T05:21:05.043Z,979.27
2017-12-11T05:21:31.155Z,979.29
2017-12-11T05:21:57.271Z,979.3
2017-12-11T05:22:23.383Z,979.29
2017-12-11T05:22:49.502Z,979.27
2017-12-11T05:23:15.616Z,979.26
2017-12-11T05:23:41.746Z,979.24
2017-12-11T05:24:07.857Z,979.28
2017-12-11T05:24:33.976Z,979.21
2017-12-11T05:25:00.091Z,979.24
2017-12-11T05:25:26.202Z,979.23
2017-12-11T05:25:52.319Z,979.23
2017-12-11T05:26:18.430Z,979.23
2017-12-11T05:26:44.547Z,979.25